aviador You're here:

KMKG Decoded Metar

MUSKEGON in MI, USA
Report Time2017-09-21 20:55:00
UTC Time2017-09-21 21:22:25
Flight Rules vfr VFR
Wind320° at 05 kt
W.Decomp.*RWY 32: 5.0 kt HW 0.3 kt RCW
RWY 24: 0.5 kt HW 5.0 kt RCW
W.Rank320° ranks 20
Current wind is below 320° avg. (9.4)
Visibility9999 m
Phenomena:N/A
Clouds:Broken 200 Hf
Expected CloudBase > 3,200 ft AGL from Temp-Dew spread
Ceiling20,000 ft
Temp29°C (ISA +15)
Dew Point21°C (62% RH)
Heat Index31.3°C
QNH1016 hPa
Density Alt2,605 ft
Elevation627 ft
Report Wrong Elevation
Raw Report
METAR KMKG 212055Z 32005KT 10SM BKN200 29/21 A3001 RMK AO2 SLP158 T02890206
58012=

Extra information for KMKG:More info

Metar Taf Metar & Taf Last 4 Metars F.Rules Stats Wind Profile Meteogram Temp Stats Airport Information Weather charts Add Link Nearby VenuesMetar ALERT Operation Metar Decoded Social comments

AIRNAV info for KMKG